sensor_id;sensor_type;location;lat;lon;timestamp;P1;durP1;ratioP1;P2;durP2;ratioP2
75154;SDS011;63735;44.730;37.818;2023-04-24T00:00:15;6.13;;;2.08;;
75154;SDS011;63735;44.730;37.818;2023-04-24T00:02:43;12.48;;;2.70;;
75154;SDS011;63735;44.730;37.818;2023-04-24T00:05:16;4.43;;;2.22;;
75154;SDS011;63735;44.730;37.818;2023-04-24T00:07:43;6.90;;;3.25;;
75154;SDS011;63735;44.730;37.818;2023-04-24T00:10:10;5.85;;;2.33;;
75154;SDS011;63735;44.730;37.818;2023-04-24T00:12:37;5.45;;;2.75;;
75154;SDS011;63735;44.730;37.818;2023-04-24T00:15:03;6.75;;;2.72;;
75154;SDS011;63735;44.730;37.818;2023-04-24T00:17:30;5.78;;;2.92;;
75154;SDS011;63735;44.730;37.818;2023-04-24T00:19:56;6.40;;;2.90;;
75154;SDS011;63735;44.730;37.818;2023-04-24T00:22:30;6.00;;;2.85;;
75154;SDS011;63735;44.730;37.818;2023-04-24T00:24:56;6.68;;;2.88;;
75154;SDS011;63735;44.730;37.818;2023-04-24T00:27:23;6.78;;;2.65;;
75154;SDS011;63735;44.730;37.818;2023-04-24T00:29:49;3.95;;;2.20;;
75154;SDS011;63735;44.730;37.818;2023-04-24T00:32:15;5.97;;;2.70;;
75154;SDS011;63735;44.730;37.818;2023-04-24T00:34:41;4.32;;;2.70;;
75154;SDS011;63735;44.730;37.818;2023-04-24T00:37:07;9.27;;;2.45;;
75154;SDS011;63735;44.730;37.818;2023-04-24T00:39:33;5.75;;;2.55;;
75154;SDS011;63735;44.730;37.818;2023-04-24T00:41:59;5.45;;;2.45;;
75154;SDS011;63735;44.730;37.818;2023-04-24T00:44:26;5.38;;;1.65;;
75154;SDS011;63735;44.730;37.818;2023-04-24T00:46:53;3.70;;;2.30;;
75154;SDS011;63735;44.730;37.818;2023-04-24T00:49:21;5.20;;;2.35;;
75154;SDS011;63735;44.730;37.818;2023-04-24T00:51:47;4.60;;;2.08;;
75154;SDS011;63735;44.730;37.818;2023-04-24T00:54:15;6.50;;;2.15;;
75154;SDS011;63735;44.730;37.818;2023-04-24T00:56:42;5.60;;;2.30;;
75154;SDS011;63735;44.730;37.818;2023-04-24T00:59:09;5.95;;;2.33;;
75154;SDS011;63735;44.730;37.818;2023-04-24T01:01:35;4.93;;;1.88;;
75154;SDS011;63735;44.730;37.818;2023-04-24T01:04:02;3.25;;;1.88;;
75154;SDS011;63735;44.730;37.818;2023-04-24T01:06:28;3.33;;;2.30;;
75154;SDS011;63735;44.730;37.818;2023-04-24T01:08:57;10.48;;;2.53;;
75154;SDS011;63735;44.730;37.818;2023-04-24T01:11:24;2.90;;;1.83;;
75154;SDS011;63735;44.730;37.818;2023-04-24T01:13:50;4.65;;;2.30;;
75154;SDS011;63735;44.730;37.818;2023-04-24T01:16:16;3.13;;;1.80;;
75154;SDS011;63735;44.730;37.818;2023-04-24T01:18:46;5.18;;;1.98;;
75154;SDS011;63735;44.730;37.818;2023-04-24T01:21:15;6.55;;;1.98;;
75154;SDS011;63735;44.730;37.818;2023-04-24T01:23:44;4.20;;;2.22;;
75154;SDS011;63735;44.730;37.818;2023-04-24T01:26:12;4.80;;;2.42;;
75154;SDS011;63735;44.730;37.818;2023-04-24T01:31:05;2.38;;;1.80;;
75154;SDS011;63735;44.730;37.818;2023-04-24T01:33:31;6.82;;;1.92;;
75154;SDS011;63735;44.730;37.818;2023-04-24T01:35:57;5.07;;;1.95;;
75154;SDS011;63735;44.730;37.818;2023-04-24T01:38:23;4.97;;;2.10;;
75154;SDS011;63735;44.730;37.818;2023-04-24T01:40:49;5.82;;;2.15;;
75154;SDS011;63735;44.730;37.818;2023-04-24T01:43:16;3.35;;;1.88;;
75154;SDS011;63735;44.730;37.818;2023-04-24T01:45:43;4.07;;;2.10;;
75154;SDS011;63735;44.730;37.818;2023-04-24T01:48:10;3.35;;;2.00;;
75154;SDS011;63735;44.730;37.818;2023-04-24T01:50:37;4.97;;;2.22;;
75154;SDS011;63735;44.730;37.818;2023-04-24T01:53:03;4.15;;;1.88;;
75154;SDS011;63735;44.730;37.818;2023-04-24T01:55:29;3.28;;;2.30;;
75154;SDS011;63735;44.730;37.818;2023-04-24T01:57:56;2.83;;;2.05;;
75154;SDS011;63735;44.730;37.818;2023-04-24T02:00:22;3.85;;;2.35;;
75154;SDS011;63735;44.730;37.818;2023-04-24T02:02:51;6.32;;;2.42;;
75154;SDS011;63735;44.730;37.818;2023-04-24T02:05:17;3.50;;;2.30;;
75154;SDS011;63735;44.730;37.818;2023-04-24T02:07:43;5.32;;;2.53;;
75154;SDS011;63735;44.730;37.818;2023-04-24T02:10:09;2.55;;;1.60;;
75154;SDS011;63735;44.730;37.818;2023-04-24T02:12:35;3.63;;;2.08;;
75154;SDS011;63735;44.730;37.818;2023-04-24T02:15:01;3.97;;;2.40;;
75154;SDS011;63735;44.730;37.818;2023-04-24T02:17:28;4.82;;;2.53;;
75154;SDS011;63735;44.730;37.818;2023-04-24T02:22:21;4.70;;;2.20;;
75154;SDS011;63735;44.730;37.818;2023-04-24T02:24:47;4.80;;;2.65;;
75154;SDS011;63735;44.730;37.818;2023-04-24T02:27:14;3.58;;;2.63;;
75154;SDS011;63735;44.730;37.818;2023-04-24T02:29:40;8.05;;;3.03;;
75154;SDS011;63735;44.730;37.818;2023-04-24T02:32:06;9.00;;;3.33;;
75154;SDS011;63735;44.730;37.818;2023-04-24T02:34:34;5.50;;;2.75;;
75154;SDS011;63735;44.730;37.818;2023-04-24T02:37:00;4.00;;;2.65;;
75154;SDS011;63735;44.730;37.818;2023-04-24T02:39:26;5.80;;;3.03;;
75154;SDS011;63735;44.730;37.818;2023-04-24T02:41:53;7.78;;;3.20;;
75154;SDS011;63735;44.730;37.818;2023-04-24T02:44:19;7.20;;;3.63;;
75154;SDS011;63735;44.730;37.818;2023-04-24T02:46:44;7.25;;;2.45;;
75154;SDS011;63735;44.730;37.818;2023-04-24T02:49:10;9.23;;;3.58;;
75154;SDS011;63735;44.730;37.818;2023-04-24T02:51:37;8.73;;;3.70;;
75154;SDS011;63735;44.730;37.818;2023-04-24T02:54:06;7.95;;;3.58;;
75154;SDS011;63735;44.730;37.818;2023-04-24T02:56:34;4.93;;;3.10;;
75154;SDS011;63735;44.730;37.818;2023-04-24T02:59:01;7.18;;;3.47;;
75154;SDS011;63735;44.730;37.818;2023-04-24T03:01:28;5.90;;;3.53;;
75154;SDS011;63735;44.730;37.818;2023-04-24T03:03:54;5.28;;;3.22;;
75154;SDS011;63735;44.730;37.818;2023-04-24T03:06:20;8.43;;;3.50;;
75154;SDS011;63735;44.730;37.818;2023-04-24T03:08:46;7.10;;;3.58;;
75154;SDS011;63735;44.730;37.818;2023-04-24T03:11:12;6.72;;;3.78;;
75154;SDS011;63735;44.730;37.818;2023-04-24T03:16:06;9.45;;;4.43;;
75154;SDS011;63735;44.730;37.818;2023-04-24T03:18:32;7.15;;;3.75;;
75154;SDS011;63735;44.730;37.818;2023-04-24T03:20:58;7.40;;;3.55;;
75154;SDS011;63735;44.730;37.818;2023-04-24T03:23:24;7.57;;;3.75;;
75154;SDS011;63735;44.730;37.818;2023-04-24T03:25:50;8.20;;;3.60;;
75154;SDS011;63735;44.730;37.818;2023-04-24T03:28:18;8.20;;;3.80;;
75154;SDS011;63735;44.730;37.818;2023-04-24T03:30:52;11.45;;;4.20;;
75154;SDS011;63735;44.730;37.818;2023-04-24T03:33:19;10.02;;;4.30;;
75154;SDS011;63735;44.730;37.818;2023-04-24T03:35:55;6.65;;;3.40;;
75154;SDS011;63735;44.730;37.818;2023-04-24T03:38:21;6.20;;;4.20;;
75154;SDS011;63735;44.730;37.818;2023-04-24T03:41:08;7.50;;;4.28;;
75154;SDS011;63735;44.730;37.818;2023-04-24T03:43:49;6.70;;;3.40;;
75154;SDS011;63735;44.730;37.818;2023-04-24T03:46:15;8.05;;;4.05;;
75154;SDS011;63735;44.730;37.818;2023-04-24T03:48:46;5.82;;;3.42;;
75154;SDS011;63735;44.730;37.818;2023-04-24T03:51:15;8.13;;;4.00;;
75154;SDS011;63735;44.730;37.818;2023-04-24T03:53:44;4.85;;;3.20;;
75154;SDS011;63735;44.730;37.818;2023-04-24T03:56:16;7.35;;;4.38;;
75154;SDS011;63735;44.730;37.818;2023-04-24T03:58:42;6.68;;;4.18;;
75154;SDS011;63735;44.730;37.818;2023-04-24T04:01:09;5.93;;;3.78;;
75154;SDS011;63735;44.730;37.818;2023-04-24T04:03:46;8.35;;;5.38;;
75154;SDS011;63735;44.730;37.818;2023-04-24T04:06:16;8.02;;;3.95;;
75154;SDS011;63735;44.730;37.818;2023-04-24T04:08:43;9.85;;;4.80;;
75154;SDS011;63735;44.730;37.818;2023-04-24T04:11:09;7.10;;;3.95;;
75154;SDS011;63735;44.730;37.818;2023-04-24T04:13:35;7.10;;;4.85;;
75154;SDS011;63735;44.730;37.818;2023-04-24T04:16:01;9.32;;;4.78;;
75154;SDS011;63735;44.730;37.818;2023-04-24T04:18:27;9.35;;;4.30;;
75154;SDS011;63735;44.730;37.818;2023-04-24T04:20:54;6.38;;;4.80;;
75154;SDS011;63735;44.730;37.818;2023-04-24T04:23:19;8.80;;;5.30;;
75154;SDS011;63735;44.730;37.818;2023-04-24T04:25:56;9.18;;;5.35;;
75154;SDS011;63735;44.730;37.818;2023-04-24T04:28:29;9.38;;;5.15;;
75154;SDS011;63735;44.730;37.818;2023-04-24T04:30:58;7.43;;;5.13;;
75154;SDS011;63735;44.730;37.818;2023-04-24T04:33:24;9.38;;;5.60;;
75154;SDS011;63735;44.730;37.818;2023-04-24T04:35:51;7.45;;;4.55;;
75154;SDS011;63735;44.730;37.818;2023-04-24T04:38:18;9.57;;;5.90;;
75154;SDS011;63735;44.730;37.818;2023-04-24T04:41:07;7.07;;;4.95;;
75154;SDS011;63735;44.730;37.818;2023-04-24T04:43:34;8.52;;;4.60;;
75154;SDS011;63735;44.730;37.818;2023-04-24T04:46:02;9.38;;;5.38;;
75154;SDS011;63735;44.730;37.818;2023-04-24T04:49:00;9.43;;;5.72;;
75154;SDS011;63735;44.730;37.818;2023-04-24T04:51:27;10.63;;;5.30;;
75154;SDS011;63735;44.730;37.818;2023-04-24T04:53:54;9.65;;;5.43;;
75154;SDS011;63735;44.730;37.818;2023-04-24T04:56:20;7.28;;;4.90;;
75154;SDS011;63735;44.730;37.818;2023-04-24T04:58:48;7.88;;;5.43;;
75154;SDS011;63735;44.730;37.818;2023-04-24T05:01:16;10.10;;;6.03;;
75154;SDS011;63735;44.730;37.818;2023-04-24T05:03:45;7.68;;;5.53;;
75154;SDS011;63735;44.730;37.818;2023-04-24T05:06:13;11.73;;;6.00;;
75154;SDS011;63735;44.730;37.818;2023-04-24T05:08:40;6.55;;;4.38;;
75154;SDS011;63735;44.730;37.818;2023-04-24T05:11:17;10.32;;;5.28;;
75154;SDS011;63735;44.730;37.818;2023-04-24T05:13:43;11.02;;;6.00;;
75154;SDS011;63735;44.730;37.818;2023-04-24T05:16:23;7.72;;;5.10;;
75154;SDS011;63735;44.730;37.818;2023-04-24T05:18:52;8.38;;;4.40;;
75154;SDS011;63735;44.730;37.818;2023-04-24T05:21:22;9.07;;;5.80;;
75154;SDS011;63735;44.730;37.818;2023-04-24T05:23:50;10.43;;;6.10;;
75154;SDS011;63735;44.730;37.818;2023-04-24T05:26:25;9.57;;;5.40;;
75154;SDS011;63735;44.730;37.818;2023-04-24T05:28:54;8.18;;;4.97;;
75154;SDS011;63735;44.730;37.818;2023-04-24T05:31:20;8.55;;;5.53;;
75154;SDS011;63735;44.730;37.818;2023-04-24T05:33:46;11.32;;;4.68;;
75154;SDS011;63735;44.730;37.818;2023-04-24T05:36:12;10.32;;;4.97;;
75154;SDS011;63735;44.730;37.818;2023-04-24T05:38:38;7.05;;;5.22;;
75154;SDS011;63735;44.730;37.818;2023-04-24T05:41:04;9.98;;;4.30;;
75154;SDS011;63735;44.730;37.818;2023-04-24T05:43:30;7.68;;;4.38;;
75154;SDS011;63735;44.730;37.818;2023-04-24T05:45:56;7.38;;;4.47;;
75154;SDS011;63735;44.730;37.818;2023-04-24T05:48:22;7.18;;;4.32;;
75154;SDS011;63735;44.730;37.818;2023-04-24T05:50:48;5.65;;;4.03;;
75154;SDS011;63735;44.730;37.818;2023-04-24T05:53:14;6.00;;;3.42;;
75154;SDS011;63735;44.730;37.818;2023-04-24T05:55:40;6.32;;;3.38;;
75154;SDS011;63735;44.730;37.818;2023-04-24T05:58:06;7.68;;;4.13;;
75154;SDS011;63735;44.730;37.818;2023-04-24T06:03:05;6.85;;;4.65;;
75154;SDS011;63735;44.730;37.818;2023-04-24T06:05:31;7.63;;;4.80;;
75154;SDS011;63735;44.730;37.818;2023-04-24T06:07:57;10.70;;;4.63;;
75154;SDS011;63735;44.730;37.818;2023-04-24T06:10:27;9.50;;;5.53;;
75154;SDS011;63735;44.730;37.818;2023-04-24T06:12:53;6.75;;;3.45;;
75154;SDS011;63735;44.730;37.818;2023-04-24T06:15:21;8.48;;;4.50;;
75154;SDS011;63735;44.730;37.818;2023-04-24T06:18:08;9.95;;;4.90;;
75154;SDS011;63735;44.730;37.818;2023-04-24T06:20:40;9.10;;;5.25;;
75154;SDS011;63735;44.730;37.818;2023-04-24T06:23:08;8.93;;;4.35;;
75154;SDS011;63735;44.730;37.818;2023-04-24T06:25:34;8.48;;;5.25;;
75154;SDS011;63735;44.730;37.818;2023-04-24T06:28:00;9.32;;;5.25;;
75154;SDS011;63735;44.730;37.818;2023-04-24T06:30:29;10.13;;;5.30;;
75154;SDS011;63735;44.730;37.818;2023-04-24T06:32:54;10.43;;;5.55;;
75154;SDS011;63735;44.730;37.818;2023-04-24T06:35:20;10.63;;;6.10;;
75154;SDS011;63735;44.730;37.818;2023-04-24T06:37:46;10.93;;;5.50;;
75154;SDS011;63735;44.730;37.818;2023-04-24T06:40:12;5.80;;;3.67;;
75154;SDS011;63735;44.730;37.818;2023-04-24T06:42:38;9.52;;;4.80;;
75154;SDS011;63735;44.730;37.818;2023-04-24T06:45:07;9.50;;;5.22;;
75154;SDS011;63735;44.730;37.818;2023-04-24T06:47:33;10.38;;;5.47;;
75154;SDS011;63735;44.730;37.818;2023-04-24T06:49:59;10.00;;;5.38;;
75154;SDS011;63735;44.730;37.818;2023-04-24T06:52:25;9.15;;;6.10;;
75154;SDS011;63735;44.730;37.818;2023-04-24T06:54:51;8.70;;;5.50;;
75154;SDS011;63735;44.730;37.818;2023-04-24T06:57:17;10.65;;;5.88;;
75154;SDS011;63735;44.730;37.818;2023-04-24T06:59:43;10.32;;;6.00;;
75154;SDS011;63735;44.730;37.818;2023-04-24T07:02:09;8.82;;;5.63;;
75154;SDS011;63735;44.730;37.818;2023-04-24T07:04:35;9.75;;;6.63;;
75154;SDS011;63735;44.730;37.818;2023-04-24T07:07:02;10.20;;;6.60;;
75154;SDS011;63735;44.730;37.818;2023-04-24T07:09:28;10.13;;;5.55;;
75154;SDS011;63735;44.730;37.818;2023-04-24T07:11:55;10.73;;;6.45;;
75154;SDS011;63735;44.730;37.818;2023-04-24T07:14:21;10.52;;;6.18;;
75154;SDS011;63735;44.730;37.818;2023-04-24T07:16:48;10.38;;;5.28;;
75154;SDS011;63735;44.730;37.818;2023-04-24T07:19:14;6.65;;;4.03;;
75154;SDS011;63735;44.730;37.818;2023-04-24T07:21:41;11.98;;;6.45;;
75154;SDS011;63735;44.730;37.818;2023-04-24T07:24:07;10.70;;;6.15;;
75154;SDS011;63735;44.730;37.818;2023-04-24T07:26:36;10.15;;;5.40;;
75154;SDS011;63735;44.730;37.818;2023-04-24T07:29:02;10.43;;;4.07;;
75154;SDS011;63735;44.730;37.818;2023-04-24T07:31:28;8.15;;;4.38;;
75154;SDS011;63735;44.730;37.818;2023-04-24T07:33:54;5.10;;;3.55;;
75154;SDS011;63735;44.730;37.818;2023-04-24T07:36:23;7.25;;;4.47;;
75154;SDS011;63735;44.730;37.818;2023-04-24T07:38:49;7.90;;;3.67;;
75154;SDS011;63735;44.730;37.818;2023-04-24T07:41:15;10.70;;;4.22;;
75154;SDS011;63735;44.730;37.818;2023-04-24T07:43:41;8.00;;;4.70;;
75154;SDS011;63735;44.730;37.818;2023-04-24T07:46:10;16.00;;;5.65;;
75154;SDS011;63735;44.730;37.818;2023-04-24T07:48:36;9.05;;;5.80;;
75154;SDS011;63735;44.730;37.818;2023-04-24T07:51:02;9.13;;;6.18;;
75154;SDS011;63735;44.730;37.818;2023-04-24T07:53:28;9.55;;;5.75;;
75154;SDS011;63735;44.730;37.818;2023-04-24T07:55:55;11.10;;;5.80;;
75154;SDS011;63735;44.730;37.818;2023-04-24T07:58:21;9.68;;;5.10;;
75154;SDS011;63735;44.730;37.818;2023-04-24T08:00:47;8.55;;;5.25;;
75154;SDS011;63735;44.730;37.818;2023-04-24T08:03:13;7.13;;;4.72;;
75154;SDS011;63735;44.730;37.818;2023-04-24T08:05:40;8.43;;;4.53;;
75154;SDS011;63735;44.730;37.818;2023-04-24T08:08:08;7.82;;;4.82;;
75154;SDS011;63735;44.730;37.818;2023-04-24T08:10:34;8.13;;;4.88;;
75154;SDS011;63735;44.730;37.818;2023-04-24T08:13:00;7.97;;;5.13;;
75154;SDS011;63735;44.730;37.818;2023-04-24T08:15:27;7.03;;;5.07;;
75154;SDS011;63735;44.730;37.818;2023-04-24T08:17:53;9.02;;;5.03;;
75154;SDS011;63735;44.730;37.818;2023-04-24T08:20:19;7.53;;;3.97;;
75154;SDS011;63735;44.730;37.818;2023-04-24T08:22:45;9.23;;;4.13;;
75154;SDS011;63735;44.730;37.818;2023-04-24T08:25:12;6.38;;;3.90;;
75154;SDS011;63735;44.730;37.818;2023-04-24T08:27:38;5.72;;;3.53;;
75154;SDS011;63735;44.730;37.818;2023-04-24T08:30:05;8.00;;;3.70;;
75154;SDS011;63735;44.730;37.818;2023-04-24T08:32:32;9.52;;;3.40;;
75154;SDS011;63735;44.730;37.818;2023-04-24T08:34:58;4.22;;;2.83;;
75154;SDS011;63735;44.730;37.818;2023-04-24T08:37:25;7.78;;;3.30;;
75154;SDS011;63735;44.730;37.818;2023-04-24T08:39:52;11.48;;;4.68;;
75154;SDS011;63735;44.730;37.818;2023-04-24T08:42:18;3.50;;;2.63;;
75154;SDS011;63735;44.730;37.818;2023-04-24T08:44:46;4.78;;;1.98;;
75154;SDS011;63735;44.730;37.818;2023-04-24T08:49:40;4.82;;;2.15;;
75154;SDS011;63735;44.730;37.818;2023-04-24T08:52:06;2.80;;;1.73;;
75154;SDS011;63735;44.730;37.818;2023-04-24T08:54:36;5.82;;;1.90;;
75154;SDS011;63735;44.730;37.818;2023-04-24T08:57:03;4.15;;;2.08;;
75154;SDS011;63735;44.730;37.818;2023-04-24T08:59:32;6.35;;;2.13;;
75154;SDS011;63735;44.730;37.818;2023-04-24T09:01:59;13.48;;;3.42;;
75154;SDS011;63735;44.730;37.818;2023-04-24T09:04:25;4.60;;;2.55;;
75154;SDS011;63735;44.730;37.818;2023-04-24T09:06:56;6.07;;;2.97;;
75154;SDS011;63735;44.730;37.818;2023-04-24T09:09:23;6.30;;;2.70;;
75154;SDS011;63735;44.730;37.818;2023-04-24T09:11:50;3.60;;;2.60;;
75154;SDS011;63735;44.730;37.818;2023-04-24T09:14:20;6.28;;;3.03;;
75154;SDS011;63735;44.730;37.818;2023-04-24T09:16:46;6.05;;;2.95;;
75154;SDS011;63735;44.730;37.818;2023-04-24T09:19:13;16.92;;;3.45;;
75154;SDS011;63735;44.730;37.818;2023-04-24T09:21:39;7.85;;;3.60;;
75154;SDS011;63735;44.730;37.818;2023-04-24T09:24:08;6.40;;;3.47;;
75154;SDS011;63735;44.730;37.818;2023-04-24T09:26:43;9.25;;;3.67;;
75154;SDS011;63735;44.730;37.818;2023-04-24T09:29:13;9.00;;;3.78;;
75154;SDS011;63735;44.730;37.818;2023-04-24T09:31:41;6.40;;;3.45;;
75154;SDS011;63735;44.730;37.818;2023-04-24T09:34:06;7.20;;;3.53;;
75154;SDS011;63735;44.730;37.818;2023-04-24T09:36:39;5.35;;;3.30;;
75154;SDS011;63735;44.730;37.818;2023-04-24T09:39:08;7.03;;;3.40;;
75154;SDS011;63735;44.730;37.818;2023-04-24T09:41:44;7.90;;;3.80;;
75154;SDS011;63735;44.730;37.818;2023-04-24T09:44:12;7.90;;;3.78;;
75154;SDS011;63735;44.730;37.818;2023-04-24T09:46:38;8.25;;;3.75;;
75154;SDS011;63735;44.730;37.818;2023-04-24T09:49:15;7.80;;;3.33;;
75154;SDS011;63735;44.730;37.818;2023-04-24T09:51:41;10.25;;;3.47;;
75154;SDS011;63735;44.730;37.818;2023-04-24T09:54:15;4.68;;;3.22;;
75154;SDS011;63735;44.730;37.818;2023-04-24T09:56:43;5.90;;;3.13;;
75154;SDS011;63735;44.730;37.818;2023-04-24T09:59:10;7.72;;;3.90;;
75154;SDS011;63735;44.730;37.818;2023-04-24T10:01:37;8.98;;;4.22;;
75154;SDS011;63735;44.730;37.818;2023-04-24T10:04:04;8.43;;;3.80;;
75154;SDS011;63735;44.730;37.818;2023-04-24T10:06:32;10.98;;;4.05;;
75154;SDS011;63735;44.730;37.818;2023-04-24T10:08:59;10.02;;;4.40;;
75154;SDS011;63735;44.730;37.818;2023-04-24T10:11:29;8.02;;;3.72;;
75154;SDS011;63735;44.730;37.818;2023-04-24T10:13:55;5.88;;;3.45;;
75154;SDS011;63735;44.730;37.818;2023-04-24T10:16:22;7.25;;;3.90;;
75154;SDS011;63735;44.730;37.818;2023-04-24T10:18:49;5.75;;;3.63;;
75154;SDS011;63735;44.730;37.818;2023-04-24T10:21:16;6.60;;;4.20;;
75154;SDS011;63735;44.730;37.818;2023-04-24T10:23:42;8.48;;;3.50;;
75154;SDS011;63735;44.730;37.818;2023-04-24T10:26:11;6.72;;;3.08;;
75154;SDS011;63735;44.730;37.818;2023-04-24T10:28:46;9.15;;;3.53;;
75154;SDS011;63735;44.730;37.818;2023-04-24T10:31:13;7.30;;;3.20;;
75154;SDS011;63735;44.730;37.818;2023-04-24T10:33:43;6.35;;;3.55;;
75154;SDS011;63735;44.730;37.818;2023-04-24T10:36:11;10.25;;;4.20;;
75154;SDS011;63735;44.730;37.818;2023-04-24T10:38:39;6.90;;;3.55;;
75154;SDS011;63735;44.730;37.818;2023-04-24T10:41:10;9.70;;;4.22;;
75154;SDS011;63735;44.730;37.818;2023-04-24T10:43:45;8.50;;;4.28;;
75154;SDS011;63735;44.730;37.818;2023-04-24T10:46:16;15.02;;;6.03;;
75154;SDS011;63735;44.730;37.818;2023-04-24T10:48:54;8.55;;;3.75;;
75154;SDS011;63735;44.730;37.818;2023-04-24T10:51:24;10.23;;;4.28;;
75154;SDS011;63735;44.730;37.818;2023-04-24T10:54:24;9.10;;;4.15;;
75154;SDS011;63735;44.730;37.818;2023-04-24T11:02:46;11.63;;;5.80;;
75154;SDS011;63735;44.730;37.818;2023-04-24T11:05:15;13.98;;;6.50;;
75154;SDS011;63735;44.730;37.818;2023-04-24T11:10:47;14.70;;;4.95;;
75154;SDS011;63735;44.730;37.818;2023-04-24T11:13:22;13.50;;;5.18;;
75154;SDS011;63735;44.730;37.818;2023-04-24T11:18:39;8.63;;;5.05;;
75154;SDS011;63735;44.730;37.818;2023-04-24T11:21:16;9.02;;;5.15;;
75154;SDS011;63735;44.730;37.818;2023-04-24T11:23:43;12.70;;;5.18;;
75154;SDS011;63735;44.730;37.818;2023-04-24T11:26:13;12.75;;;5.85;;
75154;SDS011;63735;44.730;37.818;2023-04-24T11:28:44;12.90;;;5.88;;
75154;SDS011;63735;44.730;37.818;2023-04-24T11:34:10;8.85;;;3.08;;
75154;SDS011;63735;44.730;37.818;2023-04-24T11:36:38;14.20;;;3.90;;
75154;SDS011;63735;44.730;37.818;2023-04-24T11:39:05;8.75;;;5.28;;
75154;SDS011;63735;44.730;37.818;2023-04-24T11:41:32;10.52;;;4.72;;
75154;SDS011;63735;44.730;37.818;2023-04-24T11:43:59;11.43;;;4.97;;
75154;SDS011;63735;44.730;37.818;2023-04-24T11:46:28;10.85;;;5.60;;
75154;SDS011;63735;44.730;37.818;2023-04-24T11:48:55;13.88;;;6.25;;
75154;SDS011;63735;44.730;37.818;2023-04-24T11:51:22;12.45;;;6.15;;
75154;SDS011;63735;44.730;37.818;2023-04-24T11:53:52;12.55;;;6.47;;
75154;SDS011;63735;44.730;37.818;2023-04-24T11:56:19;11.75;;;5.72;;
75154;SDS011;63735;44.730;37.818;2023-04-24T11:58:47;10.70;;;5.40;;
75154;SDS011;63735;44.730;37.818;2023-04-24T12:01:13;12.20;;;5.82;;
75154;SDS011;63735;44.730;37.818;2023-04-24T12:03:39;10.73;;;5.28;;
75154;SDS011;63735;44.730;37.818;2023-04-24T12:06:11;12.38;;;5.70;;
75154;SDS011;63735;44.730;37.818;2023-04-24T12:08:37;9.63;;;5.88;;
75154;SDS011;63735;44.730;37.818;2023-04-24T12:11:04;14.38;;;7.65;;
75154;SDS011;63735;44.730;37.818;2023-04-24T12:13:33;14.45;;;6.22;;
75154;SDS011;63735;44.730;37.818;2023-04-24T12:16:00;13.52;;;6.38;;
75154;SDS011;63735;44.730;37.818;2023-04-24T12:18:28;14.35;;;6.32;;
75154;SDS011;63735;44.730;37.818;2023-04-24T12:20:54;10.27;;;5.32;;
75154;SDS011;63735;44.730;37.818;2023-04-24T12:23:33;12.45;;;5.93;;
75154;SDS011;63735;44.730;37.818;2023-04-24T12:26:03;15.32;;;6.97;;
75154;SDS011;63735;44.730;37.818;2023-04-24T12:28:37;14.27;;;7.35;;
75154;SDS011;63735;44.730;37.818;2023-04-24T12:31:04;14.05;;;6.82;;
75154;SDS011;63735;44.730;37.818;2023-04-24T12:33:35;17.50;;;7.38;;
75154;SDS011;63735;44.730;37.818;2023-04-24T12:36:01;16.77;;;7.88;;
75154;SDS011;63735;44.730;37.818;2023-04-24T12:38:28;15.05;;;7.63;;
75154;SDS011;63735;44.730;37.818;2023-04-24T12:41:08;14.63;;;7.65;;
75154;SDS011;63735;44.730;37.818;2023-04-24T12:43:36;14.45;;;7.03;;
75154;SDS011;63735;44.730;37.818;2023-04-24T12:46:03;13.63;;;7.18;;
75154;SDS011;63735;44.730;37.818;2023-04-24T12:48:30;19.58;;;7.80;;
75154;SDS011;63735;44.730;37.818;2023-04-24T12:50:57;15.40;;;7.80;;
75154;SDS011;63735;44.730;37.818;2023-04-24T12:53:26;16.83;;;7.18;;
75154;SDS011;63735;44.730;37.818;2023-04-24T12:55:54;19.02;;;7.43;;
75154;SDS011;63735;44.730;37.818;2023-04-24T12:58:21;13.05;;;7.50;;
75154;SDS011;63735;44.730;37.818;2023-04-24T13:00:47;22.30;;;8.55;;
75154;SDS011;63735;44.730;37.818;2023-04-24T13:03:13;19.67;;;8.93;;
75154;SDS011;63735;44.730;37.818;2023-04-24T13:05:42;16.75;;;9.15;;
75154;SDS011;63735;44.730;37.818;2023-04-24T13:08:08;18.85;;;8.80;;
75154;SDS011;63735;44.730;37.818;2023-04-24T13:10:34;17.30;;;9.40;;
75154;SDS011;63735;44.730;37.818;2023-04-24T13:13:00;20.75;;;9.38;;
75154;SDS011;63735;44.730;37.818;2023-04-24T13:15:26;18.55;;;9.50;;
75154;SDS011;63735;44.730;37.818;2023-04-24T13:17:52;15.93;;;7.85;;
75154;SDS011;63735;44.730;37.818;2023-04-24T13:20:18;23.00;;;8.77;;
75154;SDS011;63735;44.730;37.818;2023-04-24T13:22:44;10.55;;;6.55;;
75154;SDS011;63735;44.730;37.818;2023-04-24T13:25:10;15.05;;;8.70;;
75154;SDS011;63735;44.730;37.818;2023-04-24T13:27:38;19.95;;;8.50;;
75154;SDS011;63735;44.730;37.818;2023-04-24T13:30:04;19.40;;;8.52;;
75154;SDS011;63735;44.730;37.818;2023-04-24T13:32:31;19.00;;;9.55;;
75154;SDS011;63735;44.730;37.818;2023-04-24T13:34:58;14.23;;;6.80;;
75154;SDS011;63735;44.730;37.818;2023-04-24T13:37:24;10.35;;;6.45;;
75154;SDS011;63735;44.730;37.818;2023-04-24T13:39:50;20.02;;;9.23;;
75154;SDS011;63735;44.730;37.818;2023-04-24T13:42:16;10.30;;;6.10;;
75154;SDS011;63735;44.730;37.818;2023-04-24T13:44:42;15.20;;;6.93;;
75154;SDS011;63735;44.730;37.818;2023-04-24T13:47:08;14.02;;;6.50;;
75154;SDS011;63735;44.730;37.818;2023-04-24T13:49:35;14.55;;;9.02;;
75154;SDS011;63735;44.730;37.818;2023-04-24T13:52:01;9.23;;;6.07;;
75154;SDS011;63735;44.730;37.818;2023-04-24T13:54:27;7.72;;;5.03;;
75154;SDS011;63735;44.730;37.818;2023-04-24T13:56:55;11.00;;;6.35;;
75154;SDS011;63735;44.730;37.818;2023-04-24T13:59:23;9.93;;;5.50;;
75154;SDS011;63735;44.730;37.818;2023-04-24T14:01:49;14.05;;;6.40;;
75154;SDS011;63735;44.730;37.818;2023-04-24T14:04:15;13.48;;;6.82;;
75154;SDS011;63735;44.730;37.818;2023-04-24T14:06:41;10.82;;;5.95;;
75154;SDS011;63735;44.730;37.818;2023-04-24T14:09:07;20.73;;;5.15;;
75154;SDS011;63735;44.730;37.818;2023-04-24T14:11:33;9.32;;;5.60;;
75154;SDS011;63735;44.730;37.818;2023-04-24T14:13:59;7.60;;;3.42;;
75154;SDS011;63735;44.730;37.818;2023-04-24T14:16:26;9.27;;;5.18;;
75154;SDS011;63735;44.730;37.818;2023-04-24T14:18:52;11.02;;;4.18;;
75154;SDS011;63735;44.730;37.818;2023-04-24T14:21:18;15.18;;;5.85;;
75154;SDS011;63735;44.730;37.818;2023-04-24T14:23:44;6.68;;;3.75;;
75154;SDS011;63735;44.730;37.818;2023-04-24T14:26:10;6.88;;;4.35;;
75154;SDS011;63735;44.730;37.818;2023-04-24T14:28:36;5.25;;;3.15;;
75154;SDS011;63735;44.730;37.818;2023-04-24T14:31:02;8.93;;;4.72;;
75154;SDS011;63735;44.730;37.818;2023-04-24T14:33:28;6.78;;;4.82;;
75154;SDS011;63735;44.730;37.818;2023-04-24T14:35:54;7.43;;;3.78;;
75154;SDS011;63735;44.730;37.818;2023-04-24T14:38:20;10.70;;;4.97;;
75154;SDS011;63735;44.730;37.818;2023-04-24T14:40:47;8.20;;;4.38;;
75154;SDS011;63735;44.730;37.818;2023-04-24T14:43:13;9.77;;;5.13;;
75154;SDS011;63735;44.730;37.818;2023-04-24T14:45:39;13.88;;;6.32;;
75154;SDS011;63735;44.730;37.818;2023-04-24T14:48:07;9.93;;;5.90;;
75154;SDS011;63735;44.730;37.818;2023-04-24T14:50:33;7.70;;;4.50;;
75154;SDS011;63735;44.730;37.818;2023-04-24T14:52:59;5.57;;;4.07;;
75154;SDS011;63735;44.730;37.818;2023-04-24T14:55:27;11.45;;;3.83;;
75154;SDS011;63735;44.730;37.818;2023-04-24T14:57:54;10.77;;;5.88;;
75154;SDS011;63735;44.730;37.818;2023-04-24T15:00:20;11.70;;;7.00;;